Nearby METAR Reports

 

KICL - Clarinda, Iowa, USA
Distance from station: N 49mi, 79km
Updated: Fri, 14-May-2021 1:55am CDT

 Wind from calm
Wind: Calm
Temperature: 50°F , 10°C
Dew Point: 37°F , 3°C
Humidity: 62%
Barometer: 30.26 inHg , 1024.7 hPa
Visibility: 10 miles , 16 km
2021/05/14 06:55 KICL 140655Z AUTO 00000KT 10SM 10/03 A3026 RMK AO2
KDSM - Des Moines, Iowa, USA
Distance from station: NNE 122mi, 196km
Updated: Fri, 14-May-2021 1:54am CDT
Overcast
Overcast
 Wind from SSE
Wind: SSE 7 mph , 11 km/h
Temperature: 52°F , 11°C
Dew Point: 34°F , 1°C
Humidity: 50%
Barometer: 30.28 inHg , 1025.4 hPa
Clouds: Overcast
Visibility: 10 miles , 16 km
Cloud details: Mostly cloudy 20000 ft
Overcast 22000 ft
2021/05/14 06:54 KDSM 140654Z 15006KT 10SM BKN200 OVC220 11/01 A3028 RMK AO2 SLP253 T01060006 $
KFNB - Falls City, Nebraska, USA
Distance from station: W 50mi, 80km
Updated: Fri, 14-May-2021 1:53am CDT
Clear
Clear
 Wind from SSE
Wind: SSE 9 mph , 15 km/h
Temperature: 54°F , 12°C
Dew Point: 37°F , 3°C
Humidity: 54%
Barometer: 30.24 inHg , 1024 hPa
Clouds: Clear
Visibility: 10 miles , 16 km
2021/05/14 06:53 KFNB 140653Z AUTO 16008KT 10SM CLR 12/03 A3024 RMK AO2 SLP237 T01220028
 
KMCI - Kansas City, Missouri, USA
Distance from station: S 65mi, 104km
Updated: Fri, 14-May-2021 1:53am CDT
Clear
Clear
 Wind from SE
Wind: SE 8 mph , 13 km/h
Temperature: 54°F , 12°C
Dew Point: 34°F , 1°C
Humidity: 47%
Barometer: 30.26 inHg , 1024.7 hPa
Clouds: Clear
Visibility: 10 miles , 16 km
2021/05/14 06:53 KMCI 140653Z 14007KT 10SM CLR 12/01 A3026 RMK AO2 SLP243 T01220011 $
KOMA - Omaha, Nebraska, USA
Distance from station: NNW 105mi, 169km
Updated: Fri, 14-May-2021 1:52am CDT
Overcast
Overcast
 Wind from SSE
Wind: SSE 14 mph , 22 km/h
Temperature: 59°F , 15°C
Dew Point: 32°F , 0°C
Humidity: 36%
Barometer: 30.20 inHg , 1022.7 hPa
Clouds: Overcast
Visibility: 10 miles , 16 km
Cloud details: Mostly cloudy 14000 ft
Overcast 20000 ft
2021/05/14 06:52 KOMA 140652Z 16012KT 10SM BKN140 OVC200 15/00 A3020 RMK AO2 SLP223 T01500000
KRDK - Red Oak, Iowa, USA
Distance from station: N 70mi, 112km
Updated: Fri, 14-May-2021 1:55am CDT
Overcast
Overcast
 Wind from SSE
Wind: SSE 6 mph , 9 km/h
Temperature: 54°F , 12°C
Dew Point: 34°F , 1°C
Humidity: 47%
Barometer: 30.24 inHg , 1024 hPa
Clouds: Overcast
Visibility: 10 miles , 16 km
Cloud details: Overcast 15000 ft
2021/05/14 06:55 KRDK 140655Z AUTO 16005KT 10SM OVC150 12/01 A3024 RMK AO2
 
KSTJ - Saint Joseph, Missouri, USA
Distance from station: SW 23mi, 37km
Updated: Fri, 14-May-2021 1:53am CDT
Clear
Clear
 Wind from SE
Wind: SE 5 mph , 7 km/h
Temperature: 55°F , 13°C
Dew Point: 34°F , 1°C
Humidity: 44%
Barometer: 30.27 inHg , 1025.1 hPa
Clouds: Clear
Visibility: 10 miles , 16 km
2021/05/14 06:53 KSTJ 140653Z AUTO 13004KT 10SM CLR 13/01 A3027 RMK AO2 SLP247 T01330006
KTOP - Topeka, Kansas, USA
Distance from station: SW 85mi, 137km
Updated: Fri, 14-May-2021 1:53am CDT
Clear
Clear
 Wind from ESE
Wind: ESE 3 mph , 6 km/h
Temperature: 54°F , 12°C
Dew Point: 37°F , 3°C
Humidity: 54%
Barometer: 30.25 inHg , 1024.4 hPa
Clouds: Clear
Visibility: 10 miles , 16 km
2021/05/14 06:53 KTOP 140653Z AUTO 12003KT 10SM CLR 12/03 A3025 RMK AO2 SLP239 T01220033
KICT - Wichita, Kansas, USA
Distance from station: SW 215mi, 346km
Updated: Fri, 14-May-2021 1:53am CDT
Partly cloudy
Partly cloudy
 Wind from SE
Wind: SE 8 mph , 13 km/h
Temperature: 54°F , 12°C
Dew Point: 43°F , 6°C
Humidity: 67%
Barometer: 30.21 inHg , 1023 hPa
Clouds: Partly cloudy
Visibility: 10 miles , 16 km
Cloud details: Partly cloudy 25000 ft
2021/05/14 06:53 KICT 140653Z 14007KT 10SM SCT250 12/06 A3021 RMK AO2 SLP225 T01170056